createdAt,value
2023-05-06T00:00:46.300Z,32.53
2023-05-06T00:02:47.914Z,32.62
2023-05-06T00:04:49.478Z,32.64
2023-05-06T00:06:51.381Z,32.01
2023-05-06T00:08:52.914Z,32.52
2023-05-06T00:10:54.360Z,32.60
2023-05-06T00:12:55.928Z,32.13
2023-05-06T00:14:57.440Z,32.14
2023-05-06T00:16:58.941Z,32.25
2023-05-06T00:19:00.584Z,32.13
2023-05-06T00:21:02.000Z,32.60
2023-05-06T00:23:03.672Z,32.02
2023-05-06T00:25:05.697Z,32.54
2023-05-06T00:27:07.155Z,32.56
2023-05-06T00:29:08.662Z,32.54
2023-05-06T00:31:10.247Z,32.17
2023-05-06T00:33:14.642Z,32.04
2023-05-06T00:35:16.225Z,32.47
2023-05-06T00:37:17.821Z,32.07
2023-05-06T00:39:19.314Z,31.96
2023-05-06T00:41:21.299Z,31.99
2023-05-06T00:43:22.694Z,31.98
2023-05-06T00:45:25.126Z,32.35
2023-05-06T00:47:26.662Z,32.47
2023-05-06T00:49:29.163Z,32.02
2023-05-06T00:51:31.251Z,31.98
2023-05-06T00:53:33.221Z,32.03
2023-05-06T00:55:34.688Z,32.21
2023-05-06T00:57:36.436Z,32.07
2023-05-06T00:59:37.872Z,31.87
2023-05-06T01:01:40.447Z,32.16
2023-05-06T01:03:42.162Z,32.05
2023-05-06T01:06:04.196Z,31.98
2023-05-06T01:08:11.597Z,32.16
2023-05-06T01:10:20.348Z,31.93
2023-05-06T01:12:45.089Z,31.99
2023-05-06T01:15:09.557Z,32.05
2023-05-06T01:17:12.376Z,31.86
2023-05-06T01:19:17.929Z,31.90
2023-05-06T01:21:20.224Z,31.84
2023-05-06T01:23:21.741Z,32.02
2023-05-06T01:25:23.507Z,32.27
2023-05-06T01:27:25.056Z,31.91
2023-05-06T01:29:26.543Z,32.17
2023-05-06T01:31:35.443Z,31.87
2023-05-06T01:33:36.940Z,31.79
2023-05-06T01:35:41.941Z,31.75
2023-05-06T01:37:48.148Z,32.08
2023-05-06T01:39:50.083Z,31.96
2023-05-06T01:41:52.421Z,31.78
2023-05-06T01:43:54.741Z,31.82
2023-05-06T01:45:57.376Z,31.62
2023-05-06T01:47:59.273Z,31.73
2023-05-06T01:50:01.567Z,31.70
2023-05-06T01:52:03.156Z,31.85
2023-05-06T01:54:04.689Z,32.24
2023-05-06T01:56:06.317Z,32.01
2023-05-06T01:58:07.714Z,31.71
2023-05-06T02:00:09.979Z,31.82
2023-05-06T02:02:11.527Z,31.75
2023-05-06T02:04:12.914Z,31.68
2023-05-06T02:06:14.433Z,31.62
2023-05-06T02:08:16.430Z,31.61
2023-05-06T02:10:19.057Z,31.60
2023-05-06T02:12:20.496Z,31.66
2023-05-06T02:14:21.906Z,32.03
2023-05-06T02:16:23.416Z,31.73
2023-05-06T02:18:25.410Z,31.95
2023-05-06T02:20:26.835Z,31.69
2023-05-06T02:22:28.213Z,31.61
2023-05-06T02:24:29.697Z,31.71
2023-05-06T02:26:31.100Z,31.54
2023-05-06T02:28:32.587Z,31.60
2023-05-06T02:30:34.680Z,31.82
2023-05-06T02:32:36.488Z,31.55
2023-05-06T02:34:37.904Z,31.58
2023-05-06T02:36:39.343Z,32.15
2023-05-06T02:38:40.940Z,31.54
2023-05-06T02:40:42.421Z,31.54
2023-05-06T02:42:44.190Z,31.53
2023-05-06T02:44:45.966Z,31.63
2023-05-06T02:46:47.388Z,31.53
2023-05-06T02:48:48.885Z,31.45
2023-05-06T02:50:51.476Z,31.45
2023-05-06T02:52:52.947Z,31.43
2023-05-06T02:54:54.507Z,31.86
2023-05-06T02:56:56.033Z,32.08
2023-05-06T02:58:57.579Z,31.44
2023-05-06T03:00:59.066Z,31.53
2023-05-06T03:03:00.632Z,31.62
2023-05-06T03:05:04.441Z,31.65
2023-05-06T03:07:05.989Z,31.66
2023-05-06T03:09:08.641Z,31.36
2023-05-06T03:11:10.190Z,31.50
2023-05-06T03:13:11.645Z,31.79
2023-05-06T03:15:13.549Z,31.45
2023-05-06T03:17:15.235Z,31.72
2023-05-06T03:19:16.752Z,31.51
2023-05-06T03:21:18.383Z,31.85
2023-05-06T03:23:19.851Z,31.93
2023-05-06T03:25:21.434Z,31.90
2023-05-06T03:27:22.907Z,31.39
2023-05-06T03:29:24.638Z,31.39
2023-05-06T03:31:26.187Z,31.60
2023-05-06T03:33:27.642Z,31.58
2023-05-06T03:35:29.478Z,31.85
2023-05-06T03:37:31.073Z,31.45
2023-05-06T03:39:32.533Z,31.37
2023-05-06T03:41:34.036Z,31.48
2023-05-06T03:43:36.070Z,31.83
2023-05-06T03:45:37.935Z,31.80
2023-05-06T03:47:39.416Z,31.41
2023-05-06T03:49:41.178Z,31.30
2023-05-06T03:51:42.625Z,31.33
2023-05-06T03:53:44.016Z,31.51
2023-05-06T03:55:45.475Z,31.48
2023-05-06T03:57:47.066Z,31.70
2023-05-06T03:59:48.475Z,31.39
2023-05-06T04:01:50.087Z,31.43
2023-05-06T04:03:52.729Z,31.33
2023-05-06T04:05:54.210Z,31.43
2023-05-06T04:07:55.645Z,31.82
2023-05-06T04:09:57.053Z,31.51
2023-05-06T04:11:58.530Z,31.60
2023-05-06T04:13:59.989Z,31.40
2023-05-06T04:16:01.569Z,31.49
2023-05-06T04:18:03.511Z,31.65
2023-05-06T04:20:06.970Z,31.40
2023-05-06T04:22:08.513Z,31.27
2023-05-06T04:24:10.178Z,31.23
2023-05-06T04:26:11.571Z,31.33
2023-05-06T04:28:13.032Z,31.39
2023-05-06T04:30:14.687Z,31.35
2023-05-06T04:32:18.034Z,31.26
2023-05-06T04:34:19.940Z,31.44
2023-05-06T04:36:21.646Z,31.39
2023-05-06T04:38:25.643Z,31.22
2023-05-06T04:40:27.533Z,31.25
2023-05-06T04:42:28.977Z,31.41
2023-05-06T04:44:30.868Z,31.22
2023-05-06T04:46:34.000Z,31.27
2023-05-06T04:48:36.809Z,31.25
2023-05-06T04:50:38.220Z,31.47
2023-05-06T04:52:40.412Z,31.85
2023-05-06T04:54:44.175Z,31.24
2023-05-06T04:56:46.867Z,31.58
2023-05-06T04:58:48.383Z,31.31
2023-05-06T05:00:49.856Z,31.18
2023-05-06T05:02:51.553Z,31.72
2023-05-06T05:04:53.478Z,31.20
2023-05-06T05:06:55.058Z,31.75
2023-05-06T05:08:57.094Z,31.22
2023-05-06T05:10:58.551Z,31.30
2023-05-06T05:13:00.072Z,31.74
2023-05-06T05:15:01.582Z,31.39
2023-05-06T05:17:03.076Z,31.22
2023-05-06T05:19:05.302Z,31.60
2023-05-06T05:21:08.353Z,31.21
2023-05-06T05:23:09.877Z,31.13
2023-05-06T05:25:11.860Z,31.54
2023-05-06T05:27:13.631Z,31.43
2023-05-06T05:29:15.090Z,31.24
2023-05-06T05:31:16.727Z,31.42
2023-05-06T05:33:18.300Z,31.34
2023-05-06T05:35:19.850Z,31.70
2023-05-06T05:37:21.370Z,31.37
2023-05-06T05:39:22.956Z,31.68
2023-05-06T05:41:26.472Z,31.30
2023-05-06T05:43:27.933Z,31.70
2023-05-06T05:45:29.348Z,31.21
2023-05-06T05:47:31.038Z,31.37
2023-05-06T05:49:32.560Z,31.27
2023-05-06T05:51:34.115Z,31.26
2023-05-06T05:53:35.603Z,31.21
2023-05-06T05:55:37.048Z,31.37
2023-05-06T05:57:38.527Z,31.68
2023-05-06T05:59:40.068Z,31.17
2023-05-06T06:01:41.628Z,31.53
2023-05-06T06:03:43.950Z,31.25
2023-05-06T06:05:45.681Z,31.44
2023-05-06T06:07:47.228Z,31.43
2023-05-06T06:09:48.931Z,31.22
2023-05-06T06:11:50.565Z,31.65
2023-05-06T06:13:52.106Z,31.37
2023-05-06T06:15:53.598Z,31.27
2023-05-06T06:17:55.518Z,31.64
2023-05-06T06:19:58.636Z,31.32
2023-05-06T06:22:00.154Z,31.24
2023-05-06T06:24:01.590Z,31.49
2023-05-06T06:26:04.517Z,31.20
2023-05-06T06:28:06.104Z,31.67
2023-05-06T06:30:07.864Z,31.32
2023-05-06T06:32:09.515Z,31.26
2023-05-06T06:34:12.674Z,31.33
2023-05-06T06:36:14.324Z,31.82
2023-05-06T06:38:15.895Z,31.39
2023-05-06T06:40:17.454Z,31.39
2023-05-06T06:42:18.842Z,31.32
2023-05-06T06:44:20.473Z,31.30
2023-05-06T06:46:22.000Z,31.25
2023-05-06T06:48:23.488Z,31.19
2023-05-06T06:50:25.052Z,31.51
2023-05-06T06:52:26.576Z,31.33
2023-05-06T06:54:28.340Z,31.55
2023-05-06T06:56:29.866Z,31.26
2023-05-06T06:58:33.199Z,31.21
2023-05-06T07:00:34.754Z,31.21
2023-05-06T07:02:36.228Z,31.73
2023-05-06T07:04:37.822Z,31.61
2023-05-06T07:06:39.402Z,31.65
2023-05-06T07:08:40.936Z,31.27
2023-05-06T07:10:42.553Z,31.48
2023-05-06T07:12:44.086Z,31.32
2023-05-06T07:14:45.645Z,31.63
2023-05-06T07:16:49.330Z,31.11
2023-05-06T07:18:53.742Z,31.17
2023-05-06T07:20:55.380Z,31.51
2023-05-06T07:22:56.892Z,31.51
2023-05-06T07:24:58.410Z,31.64
2023-05-06T07:27:01.132Z,31.18
2023-05-06T07:29:02.657Z,31.69
2023-05-06T07:31:04.221Z,31.68
2023-05-06T07:33:05.917Z,31.55
2023-05-06T07:35:08.231Z,31.26
2023-05-06T07:37:09.990Z,31.14
2023-05-06T07:39:12.280Z,31.67
2023-05-06T07:41:13.713Z,31.64
2023-05-06T07:43:15.400Z,31.56
2023-05-06T07:45:16.852Z,31.30
2023-05-06T07:47:28.745Z,31.24
2023-05-06T07:49:33.157Z,31.12
2023-05-06T07:51:35.103Z,31.16
2023-05-06T07:53:38.090Z,31.60
2023-05-06T07:55:39.674Z,31.69
2023-05-06T07:57:41.181Z,31.23
2023-05-06T07:59:52.173Z,31.45
2023-05-06T08:01:53.793Z,31.26
2023-05-06T08:03:55.277Z,31.17
2023-05-06T08:05:56.853Z,31.15
2023-05-06T08:07:58.841Z,31.62
2023-05-06T08:10:00.427Z,31.39
2023-05-06T08:12:02.181Z,31.57
2023-05-06T08:14:03.594Z,31.62
2023-05-06T08:16:06.674Z,31.41
2023-05-06T08:18:20.716Z,31.29
2023-05-06T08:20:23.630Z,31.54
2023-05-06T08:22:25.121Z,31.53
2023-05-06T08:24:26.905Z,31.55
2023-05-06T08:26:28.588Z,31.54
2023-05-06T08:28:30.418Z,31.88
2023-05-06T08:30:31.892Z,31.61
2023-05-06T08:32:33.448Z,31.38
2023-05-06T08:34:35.113Z,31.46
2023-05-06T08:36:36.749Z,31.72
2023-05-06T08:38:38.171Z,31.80
2023-05-06T08:40:42.159Z,31.42
2023-05-06T08:42:45.508Z,31.27
2023-05-06T08:44:47.378Z,31.58
2023-05-06T08:46:48.991Z,31.38
2023-05-06T08:48:50.508Z,31.62
2023-05-06T08:50:54.709Z,31.32
2023-05-06T08:52:56.146Z,31.25
2023-05-06T08:55:01.438Z,31.56
2023-05-06T08:57:04.524Z,31.28
2023-05-06T08:59:09.065Z,31.74
2023-05-06T09:01:10.809Z,31.65
2023-05-06T09:03:12.552Z,31.32
2023-05-06T09:05:14.148Z,31.14
2023-05-06T09:07:15.717Z,31.19
2023-05-06T09:09:17.221Z,31.56
2023-05-06T09:11:19.417Z,31.48
2023-05-06T09:13:21.023Z,31.49
2023-05-06T09:15:28.531Z,31.20
2023-05-06T09:17:31.788Z,31.07
2023-05-06T09:19:38.282Z,31.05
2023-05-06T09:21:41.124Z,31.29
2023-05-06T09:23:42.634Z,31.46
2023-05-06T09:25:45.880Z,31.10
2023-05-06T09:27:47.618Z,31.59
2023-05-06T09:30:05.745Z,31.63
2023-05-06T09:32:08.026Z,31.37
2023-05-06T09:34:09.578Z,31.34
2023-05-06T09:36:13.382Z,31.72
2023-05-06T09:38:15.356Z,31.90
2023-05-06T09:40:16.889Z,31.53
2023-05-06T09:42:18.315Z,31.99
2023-05-06T09:44:22.127Z,31.91
2023-05-06T09:46:24.182Z,31.70
2023-05-06T09:48:28.468Z,32.10
2023-05-06T09:50:30.048Z,31.70
2023-05-06T09:52:31.649Z,31.68
2023-05-06T09:54:33.304Z,32.15
2023-05-06T09:56:35.339Z,32.08
2023-05-06T09:58:38.276Z,31.98
2023-05-06T10:00:39.918Z,32.01
2023-05-06T10:02:41.982Z,32.06
2023-05-06T10:04:45.920Z,31.79
2023-05-06T10:06:49.216Z,32.06
2023-05-06T10:08:51.098Z,32.17
2023-05-06T10:10:53.087Z,32.09
2023-05-06T10:12:54.799Z,31.92
2023-05-06T10:14:56.315Z,31.92
2023-05-06T10:16:58.285Z,31.90
2023-05-06T10:19:00.457Z,31.88
2023-05-06T10:21:03.971Z,32.17
2023-05-06T10:23:05.517Z,31.98
2023-05-06T10:25:25.708Z,32.17
2023-05-06T10:27:28.748Z,32.35
2023-05-06T10:29:31.192Z,32.14
2023-05-06T10:31:33.833Z,32.50
2023-05-06T10:33:35.275Z,32.38
2023-05-06T10:36:06.477Z,32.29
2023-05-06T10:38:28.150Z,32.77
2023-05-06T10:40:29.749Z,32.68
2023-05-06T10:42:35.408Z,32.20
2023-05-06T10:44:55.698Z,32.36
2023-05-06T10:46:58.942Z,32.49
2023-05-06T10:49:04.374Z,32.61
2023-05-06T10:51:17.620Z,32.82
2023-05-06T10:53:39.013Z,32.77
2023-05-06T10:55:40.509Z,33.71
2023-05-06T10:57:42.017Z,32.94
2023-05-06T10:59:46.947Z,33.13
2023-05-06T11:01:55.064Z,33.32
2023-05-06T11:03:56.862Z,33.38
2023-05-06T11:05:58.652Z,32.90
2023-05-06T11:08:10.559Z,32.90
2023-05-06T11:10:12.229Z,32.91
2023-05-06T11:12:13.715Z,32.91
2023-05-06T11:14:16.862Z,32.98
2023-05-06T11:16:38.848Z,33.15
2023-05-06T11:18:41.840Z,32.73
2023-05-06T11:20:43.539Z,32.95
2023-05-06T11:22:45.048Z,33.13
2023-05-06T11:24:46.743Z,33.00
2023-05-06T11:26:48.213Z,32.82
2023-05-06T11:28:51.172Z,32.73
2023-05-06T11:30:54.388Z,32.87
2023-05-06T11:32:57.366Z,32.83
2023-05-06T11:34:58.861Z,32.80
2023-05-06T11:37:02.510Z,32.60
2023-05-06T11:39:08.410Z,32.16
2023-05-06T11:41:09.897Z,32.99
2023-05-06T11:43:11.312Z,32.30
2023-05-06T11:45:12.844Z,32.37
2023-05-06T11:47:14.305Z,32.37
2023-05-06T11:49:15.874Z,32.09
2023-05-06T11:51:23.350Z,31.43
2023-05-06T11:53:24.990Z,31.72
2023-05-06T11:55:26.780Z,31.75
2023-05-06T11:57:28.338Z,31.92
2023-05-06T11:59:33.722Z,32.66
2023-05-06T12:01:35.399Z,32.03
2023-05-06T12:03:37.057Z,32.64
2023-05-06T12:05:40.881Z,32.39
2023-05-06T12:07:44.628Z,32.73
2023-05-06T12:09:47.444Z,32.38
2023-05-06T12:11:49.360Z,32.79
2023-05-06T12:13:50.966Z,32.90
2023-05-06T12:15:53.972Z,32.25
2023-05-06T12:17:55.820Z,32.36
2023-05-06T12:19:58.754Z,32.49
2023-05-06T12:22:22.543Z,32.48
2023-05-06T12:24:30.276Z,32.31
2023-05-06T12:26:43.132Z,32.35
2023-05-06T12:28:44.696Z,32.30
2023-05-06T12:30:46.359Z,32.09
2023-05-06T12:32:58.267Z,31.81
2023-05-06T12:35:05.425Z,31.91
2023-05-06T12:37:10.012Z,32.04
2023-05-06T12:39:12.255Z,32.26
2023-05-06T12:41:13.694Z,31.88
2023-05-06T12:43:15.213Z,32.02
2023-05-06T12:45:16.776Z,31.73
2023-05-06T12:47:19.398Z,31.89
2023-05-06T12:49:20.856Z,31.74
2023-05-06T12:51:22.810Z,31.71
2023-05-06T12:53:31.424Z,31.72
2023-05-06T12:55:33.507Z,32.08
2023-05-06T12:57:35.740Z,31.91
2023-05-06T12:59:37.348Z,31.68
2023-05-06T13:01:39.113Z,31.86
2023-05-06T13:03:41.368Z,32.09
2023-05-06T13:05:42.988Z,31.73
2023-05-06T13:07:44.538Z,31.72
2023-05-06T13:09:46.112Z,31.87
2023-05-06T13:11:47.578Z,31.80
2023-05-06T13:13:49.005Z,31.48
2023-05-06T13:15:52.614Z,32.18
2023-05-06T13:17:54.165Z,31.94
2023-05-06T13:19:56.960Z,32.30
2023-05-06T13:21:58.874Z,32.22
2023-05-06T13:24:00.377Z,31.93
2023-05-06T13:26:05.808Z,31.95
2023-05-06T13:28:07.784Z,31.81
2023-05-06T13:30:09.704Z,31.54
2023-05-06T13:32:11.475Z,31.79
2023-05-06T13:34:13.072Z,31.71
2023-05-06T13:36:14.573Z,31.64
2023-05-06T13:38:16.007Z,31.94
2023-05-06T13:40:17.576Z,31.85
2023-05-06T13:42:19.077Z,31.74
2023-05-06T13:44:20.986Z,31.90
2023-05-06T13:46:23.168Z,31.87
2023-05-06T13:48:24.953Z,31.59
2023-05-06T13:50:26.398Z,31.52
2023-05-06T13:52:27.935Z,31.93
2023-05-06T13:54:29.476Z,31.87
2023-05-06T13:56:31.359Z,31.80
2023-05-06T13:58:33.186Z,31.78
2023-05-06T14:00:35.141Z,31.99
2023-05-06T14:02:37.336Z,31.84
2023-05-06T14:04:39.127Z,31.92
2023-05-06T14:06:40.828Z,31.94
2023-05-06T14:08:42.612Z,32.16
2023-05-06T14:10:44.238Z,32.54
2023-05-06T14:12:46.309Z,32.39
2023-05-06T14:14:47.768Z,31.96
2023-05-06T14:16:51.891Z,31.90
2023-05-06T14:18:53.608Z,31.61
2023-05-06T14:20:56.509Z,32.02
2023-05-06T14:22:58.110Z,31.68
2023-05-06T14:24:59.565Z,31.94
2023-05-06T14:27:01.210Z,32.15
2023-05-06T14:29:02.835Z,32.03
2023-05-06T14:31:04.364Z,32.40
2023-05-06T14:33:06.447Z,32.22
2023-05-06T14:35:08.415Z,32.63
2023-05-06T14:37:10.139Z,32.56
2023-05-06T14:39:12.752Z,32.62
2023-05-06T14:41:14.467Z,33.00
2023-05-06T14:43:16.045Z,32.69
2023-05-06T14:45:17.623Z,32.57
2023-05-06T14:47:19.057Z,32.44
2023-05-06T14:49:21.215Z,33.16
2023-05-06T14:51:22.682Z,33.10
2023-05-06T14:53:24.148Z,33.00
2023-05-06T14:55:25.869Z,33.05
2023-05-06T14:57:27.281Z,32.65
2023-05-06T14:59:28.893Z,32.59
2023-05-06T15:01:33.588Z,32.74
2023-05-06T15:03:36.410Z,32.70
2023-05-06T15:05:38.245Z,32.55
2023-05-06T15:07:39.746Z,32.06
2023-05-06T15:09:43.846Z,32.00
2023-05-06T15:11:45.954Z,32.96
2023-05-06T15:13:47.556Z,33.09
2023-05-06T15:15:49.043Z,33.26
2023-05-06T15:17:52.374Z,33.93
2023-05-06T15:19:54.071Z,33.57
2023-05-06T15:21:56.001Z,33.23
2023-05-06T15:23:57.500Z,33.18
2023-05-06T15:25:59.087Z,33.16
2023-05-06T15:28:00.720Z,33.29
2023-05-06T15:30:04.377Z,33.02
2023-05-06T15:32:09.654Z,33.20
2023-05-06T15:34:12.042Z,33.17
2023-05-06T15:36:13.746Z,33.01
2023-05-06T15:38:15.445Z,32.64
2023-05-06T15:40:17.224Z,33.02
2023-05-06T15:42:18.945Z,32.54
2023-05-06T15:44:21.201Z,32.96
2023-05-06T15:46:23.248Z,32.92
2023-05-06T15:48:24.766Z,32.88
2023-05-06T15:52:33.279Z,32.53
2023-05-06T15:54:37.523Z,32.58
2023-05-06T15:56:41.633Z,32.93
2023-05-06T15:58:43.758Z,33.19
2023-05-06T16:00:45.267Z,33.02
2023-05-06T16:02:46.944Z,32.87
2023-05-06T16:04:48.911Z,33.58
2023-05-06T16:06:50.724Z,34.00
2023-05-06T16:08:52.137Z,34.03
2023-05-06T16:10:53.922Z,33.97
2023-05-06T16:12:55.511Z,34.00
2023-05-06T16:14:56.972Z,34.12
2023-05-06T16:16:58.918Z,34.22
2023-05-06T16:19:00.439Z,34.17
2023-05-06T16:21:01.928Z,34.58
2023-05-06T16:23:03.391Z,34.57
2023-05-06T16:25:05.086Z,34.36
2023-05-06T16:27:06.612Z,34.52
2023-05-06T16:29:08.171Z,34.57
2023-05-06T16:31:09.803Z,34.36
2023-05-06T16:33:12.137Z,34.29
2023-05-06T16:35:13.883Z,34.21
2023-05-06T16:37:15.594Z,34.67
2023-05-06T16:39:17.200Z,34.63
2023-05-06T16:41:18.645Z,34.47
2023-05-06T16:43:20.171Z,34.41
2023-05-06T16:45:21.679Z,34.81
2023-05-06T16:47:24.261Z,35.20
2023-05-06T16:49:28.139Z,34.89
2023-05-06T16:51:29.761Z,35.50
2023-05-06T16:53:31.219Z,36.11
2023-05-06T16:55:32.787Z,35.98
2023-05-06T16:57:34.416Z,35.67
2023-05-06T16:59:36.291Z,35.25
2023-05-06T17:01:37.831Z,35.77
2023-05-06T17:03:40.371Z,35.97
2023-05-06T17:05:43.348Z,36.01
2023-05-06T17:07:45.032Z,36.35
2023-05-06T17:09:46.647Z,35.89
2023-05-06T17:11:48.477Z,36.52
2023-05-06T17:13:49.908Z,36.57
2023-05-06T17:15:51.786Z,36.28
2023-05-06T17:17:54.021Z,36.30
2023-05-06T17:19:57.364Z,35.85
2023-05-06T17:21:59.009Z,36.02
2023-05-06T17:24:00.655Z,36.62
2023-05-06T17:28:04.577Z,36.31
2023-05-06T17:30:06.647Z,35.81
2023-05-06T17:32:08.585Z,35.54
2023-05-06T17:34:10.080Z,35.74
2023-05-06T17:36:16.067Z,35.84
2023-05-06T17:38:17.549Z,35.04
2023-05-06T17:40:19.245Z,35.34
2023-05-06T17:42:20.710Z,35.23
2023-05-06T17:44:22.392Z,35.31
2023-05-06T17:46:23.918Z,34.59
2023-05-06T17:48:25.523Z,34.75
2023-05-06T17:50:27.046Z,34.74
2023-05-06T17:52:28.628Z,34.95
2023-05-06T17:54:34.669Z,34.82
2023-05-06T17:56:36.484Z,34.89
2023-05-06T17:58:37.984Z,35.00
2023-05-06T18:00:39.561Z,34.85
2023-05-06T18:02:41.628Z,34.96
2023-05-06T18:04:43.972Z,35.04
2023-05-06T18:06:46.307Z,35.11
2023-05-06T18:08:47.829Z,35.27
2023-05-06T18:10:50.530Z,35.23
2023-05-06T18:12:52.298Z,35.71
2023-05-06T18:14:55.327Z,35.73
2023-05-06T18:16:58.536Z,35.70
2023-05-06T18:19:02.584Z,35.85
2023-05-06T18:21:04.156Z,35.77
2023-05-06T18:23:06.925Z,35.93
2023-05-06T18:25:09.341Z,35.62
2023-05-06T18:27:12.763Z,35.50
2023-05-06T18:29:14.596Z,35.60
2023-05-06T18:31:16.163Z,35.19
2023-05-06T18:33:17.804Z,35.43
2023-05-06T18:35:19.466Z,34.90
2023-05-06T18:37:20.990Z,35.13
2023-05-06T18:39:23.215Z,35.09
2023-05-06T18:41:25.148Z,35.34
2023-05-06T18:43:26.908Z,35.46
2023-05-06T18:45:29.477Z,34.71
2023-05-06T18:47:32.156Z,34.62
2023-05-06T18:49:33.821Z,34.85
2023-05-06T18:51:37.527Z,35.12
2023-05-06T18:53:39.326Z,34.92
2023-05-06T18:55:40.749Z,34.13
2023-05-06T18:57:42.220Z,34.39
2023-05-06T18:59:43.643Z,34.61
2023-05-06T19:01:46.020Z,34.95
2023-05-06T19:03:47.751Z,35.13
2023-05-06T19:05:49.341Z,35.05
2023-05-06T19:07:51.523Z,34.69
2023-05-06T19:09:52.954Z,35.08
2023-05-06T19:11:55.412Z,35.06
2023-05-06T19:13:56.917Z,34.72
2023-05-06T19:15:58.341Z,34.67
2023-05-06T19:18:00.257Z,35.14
2023-05-06T19:20:01.753Z,34.85
2023-05-06T19:22:03.235Z,35.05
2023-05-06T19:24:05.929Z,34.79
2023-05-06T19:26:07.735Z,34.29
2023-05-06T19:28:09.590Z,34.00
2023-05-06T19:30:11.117Z,33.73
2023-05-06T19:32:12.683Z,33.41
2023-05-06T19:34:14.431Z,33.54
2023-05-06T19:36:16.587Z,33.68
2023-05-06T19:38:19.581Z,33.49
2023-05-06T19:40:22.004Z,33.62
2023-05-06T19:42:23.517Z,33.90
2023-05-06T19:44:24.935Z,33.54
2023-05-06T19:46:26.416Z,33.21
2023-05-06T19:48:28.045Z,33.40
2023-05-06T19:50:31.233Z,33.11
2023-05-06T19:52:34.463Z,33.09
2023-05-06T19:54:36.164Z,33.00
2023-05-06T19:56:37.620Z,33.06
2023-05-06T19:58:39.562Z,33.40
2023-05-06T20:00:41.233Z,33.33
2023-05-06T20:02:42.738Z,32.92
2023-05-06T20:04:44.556Z,32.98
2023-05-06T20:06:46.250Z,33.32
2023-05-06T20:08:47.674Z,33.20
2023-05-06T20:10:49.171Z,33.03
2023-05-06T20:12:50.662Z,33.27
2023-05-06T20:14:52.596Z,33.18
2023-05-06T20:16:54.248Z,32.93
2023-05-06T20:18:56.279Z,32.92
2023-05-06T20:20:57.934Z,32.87
2023-05-06T20:23:00.739Z,32.82
2023-05-06T20:25:09.541Z,32.79
2023-05-06T20:27:11.365Z,32.73
2023-05-06T20:29:12.829Z,32.73
2023-05-06T20:31:14.315Z,32.85
2023-05-06T20:33:15.819Z,32.71
2023-05-06T20:35:17.746Z,32.70
2023-05-06T20:37:20.040Z,33.00
2023-05-06T20:39:21.963Z,32.66
2023-05-06T20:41:23.398Z,32.77
2023-05-06T20:43:25.164Z,32.68
2023-05-06T20:45:27.554Z,32.89
2023-05-06T20:47:29.057Z,32.70
2023-05-06T20:49:30.645Z,32.66
2023-05-06T20:51:32.136Z,32.53
2023-05-06T20:53:33.816Z,32.64
2023-05-06T20:55:35.463Z,32.54
2023-05-06T20:57:41.306Z,32.49
2023-05-06T20:59:42.928Z,33.12
2023-05-06T21:01:44.594Z,32.90
2023-05-06T21:03:49.083Z,33.04
2023-05-06T21:05:50.639Z,32.56
2023-05-06T21:07:52.103Z,32.57
2023-05-06T21:09:53.548Z,32.28
2023-05-06T21:11:55.616Z,32.44
2023-05-06T21:13:57.495Z,32.84
2023-05-06T21:15:58.906Z,32.74
2023-05-06T21:18:00.823Z,32.78
2023-05-06T21:20:03.689Z,32.46
2023-05-06T21:22:09.915Z,32.37
2023-05-06T21:24:12.100Z,32.53
2023-05-06T21:26:13.860Z,32.45
2023-05-06T21:28:15.336Z,32.71
2023-05-06T21:30:17.481Z,32.42
2023-05-06T21:32:19.126Z,32.49
2023-05-06T21:34:20.984Z,32.49
2023-05-06T21:36:22.635Z,32.70
2023-05-06T21:38:24.151Z,32.77
2023-05-06T21:40:25.844Z,32.62
2023-05-06T21:42:27.539Z,32.81
2023-05-06T21:44:29.002Z,32.67
2023-05-06T21:46:30.787Z,32.74
2023-05-06T21:48:32.469Z,32.85
2023-05-06T21:50:35.789Z,32.79
2023-05-06T21:52:37.529Z,32.99
2023-05-06T21:54:38.905Z,32.84
2023-05-06T21:56:40.548Z,32.63
2023-05-06T21:58:41.992Z,33.03
2023-05-06T22:00:43.453Z,32.82
2023-05-06T22:02:46.312Z,33.06
2023-05-06T22:04:47.946Z,33.07
2023-05-06T22:06:49.438Z,33.08
2023-05-06T22:08:51.388Z,32.94
2023-05-06T22:10:53.111Z,32.82
2023-05-06T22:12:54.548Z,33.42
2023-05-06T22:14:55.998Z,32.89
2023-05-06T22:16:57.464Z,33.21
2023-05-06T22:18:59.376Z,33.32
2023-05-06T22:21:00.904Z,33.39
2023-05-06T22:23:02.542Z,33.58
2023-05-06T22:25:04.075Z,33.29
2023-05-06T22:27:05.585Z,33.51
2023-05-06T22:29:07.253Z,33.58
2023-05-06T22:31:08.909Z,33.69
2023-05-06T22:33:10.383Z,33.82
2023-05-06T22:35:12.260Z,33.63
2023-05-06T22:37:14.061Z,33.78
2023-05-06T22:39:15.630Z,34.02
2023-05-06T22:41:18.129Z,33.82
2023-05-06T22:43:19.652Z,33.86
2023-05-06T22:45:21.102Z,33.84
2023-05-06T22:47:22.675Z,33.72
2023-05-06T22:49:26.212Z,34.29
2023-05-06T22:51:28.045Z,34.42
2023-05-06T22:53:29.715Z,34.15
2023-05-06T22:55:31.329Z,34.53
2023-05-06T22:57:32.814Z,34.72
2023-05-06T22:59:34.237Z,34.59
2023-05-06T23:01:35.715Z,35.00
2023-05-06T23:03:37.291Z,35.11
2023-05-06T23:05:38.855Z,35.03
2023-05-06T23:07:40.476Z,35.20
2023-05-06T23:09:42.093Z,35.20
2023-05-06T23:11:43.571Z,35.07
2023-05-06T23:13:45.620Z,35.12
2023-05-06T23:15:47.130Z,35.37
2023-05-06T23:17:48.618Z,35.45
2023-05-06T23:19:50.084Z,35.37
2023-05-06T23:21:52.249Z,35.56
2023-05-06T23:23:53.816Z,35.43
2023-05-06T23:25:56.435Z,35.49
2023-05-06T23:27:58.078Z,35.38
2023-05-06T23:29:59.555Z,35.09
2023-05-06T23:32:01.047Z,35.31
2023-05-06T23:34:02.625Z,35.68
2023-05-06T23:36:04.624Z,35.68
2023-05-06T23:38:06.353Z,35.66
2023-05-06T23:40:08.038Z,35.62
2023-05-06T23:42:09.616Z,35.63
2023-05-06T23:44:11.118Z,35.79
2023-05-06T23:46:12.645Z,35.81
2023-05-06T23:48:14.356Z,35.74
2023-05-06T23:50:16.046Z,36.10
2023-05-06T23:52:17.460Z,35.88
2023-05-06T23:54:18.992Z,35.96
2023-05-06T23:56:21.702Z,35.98
2023-05-06T23:58:23.132Z,36.04
